Time;durP1;ratioP1;P1;durP2;ratioP2;P2;SDS_P1;SDS_P2;PMS_P1;PMS_P2;Temp;Humidity;BMP_temperature;BMP_pressure;BME280_temperature;BME280_humidity;BME280_pressure;Samples;Min_cycle;Max_cycle;Signal;HPM_P1;HPM_P2
2021/10/28 00:12:12;;;;;;;26.97;18.37;;;;;;;6.91;90.39;96062.94;4990336;28;20746;-79
2021/10/28 00:12:35;;;;;;;26.00;18.70;;;;;;;6.81;90.10;96065.38;5010417;28;20190;-79
2021/10/28 00:15:04;;;;;;;28.40;18.97;;;;;;;6.72;89.90;96060.91;4994388;28;20191;-79
2021/10/28 00:18:05;;;;;;;24.63;17.20;;;;;;;6.69;90.10;96059.34;5010655;28;20238;-79
2021/10/28 00:20:34;;;;;;;21.13;16.00;;;;;;;6.58;90.20;96064.47;4999104;28;20279;-79
2021/10/28 00:23:01;;;;;;;21.70;15.40;;;;;;;6.53;90.42;96051.88;5010568;28;20202;-79
2021/10/28 00:25:27;;;;;;;23.27;15.93;;;;;;;6.47;90.16;96051.50;4993365;28;20210;-79
2021/10/28 00:27:52;;;;;;;19.90;15.03;;;;;;;6.46;90.76;96049.88;5010360;28;20207;-79
2021/10/28 00:30:19;;;;;;;23.27;15.77;;;;;;;6.48;90.21;96050.56;5018718;28;20214;-79
2021/10/28 00:32:44;;;;;;;21.87;15.20;;;;;;;6.58;90.28;96046.41;5050889;28;20192;-79
2021/10/28 00:35:10;;;;;;;20.10;15.80;;;;;;;6.49;90.45;96045.28;5033473;28;20193;-79
2021/10/28 00:37:36;;;;;;;26.90;16.87;;;;;;;6.42;90.58;96041.50;5050922;28;20178;-79
2021/10/28 00:40:03;;;;;;;25.17;16.87;;;;;;;6.47;90.51;96039.44;5034513;28;20206;-79
2021/10/28 00:42:29;;;;;;;26.20;17.80;;;;;;;6.38;90.66;96037.50;5054344;28;20200;-79
2021/10/28 00:44:54;;;;;;;27.90;18.50;;;;;;;6.46;91.08;96044.72;5037331;28;20196;-79
2021/10/28 00:47:20;;;;;;;29.30;19.73;;;;;;;6.41;90.91;96033.88;5038021;28;20582;-79
2021/10/28 00:49:45;;;;;;;28.03;19.83;;;;;;;6.52;91.28;96034.75;5044524;28;20261;-79
2021/10/28 00:52:11;;;;;;;31.33;20.30;;;;;;;6.47;91.30;96036.84;5054543;28;20189;-79
2021/10/28 00:54:36;;;;;;;29.37;19.97;;;;;;;6.36;91.09;96034.22;5053576;28;20182;-78
2021/10/28 00:57:02;;;;;;;27.93;19.77;;;;;;;6.31;91.07;96031.16;5053251;28;20174;-79
2021/10/28 00:59:27;;;;;;;29.57;19.20;;;;;;;6.34;91.67;96032.66;5037895;28;20202;-79
2021/10/28 01:01:53;;;;;;;30.40;18.43;;;;;;;6.22;91.31;96022.31;5054434;28;20182;-79
2021/10/28 01:04:18;;;;;;;26.60;19.17;;;;;;;6.16;91.49;96027.88;5053830;28;20268;-79
2021/10/28 01:06:44;;;;;;;30.27;18.67;;;;;;;6.06;91.54;96019.16;5037360;28;20246;-79
2021/10/28 01:09:10;;;;;;;25.77;17.93;;;;;;;5.99;91.43;96025.69;5037114;28;20251;-79
2021/10/28 01:11:35;;;;;;;28.40;18.87;;;;;;;6.06;91.65;96028.66;5041408;28;20181;-78
2021/10/28 01:14:01;;;;;;;26.90;18.93;;;;;;;6.03;91.46;96026.31;5053556;28;20173;-79
2021/10/28 01:16:27;;;;;;;25.30;17.73;;;;;;;5.93;91.61;96028.72;5054080;28;20599;-79
2021/10/28 01:18:53;;;;;;;27.47;18.43;;;;;;;5.94;91.79;96031.16;5053399;28;20201;-79
2021/10/28 01:21:19;;;;;;;28.80;20.00;;;;;;;5.94;92.13;96026.00;5037120;28;20186;-78
2021/10/28 01:23:46;;;;;;;30.03;19.63;;;;;;;5.93;91.89;96026.13;5053138;28;20185;-79
2021/10/28 01:26:12;;;;;;;30.03;20.87;;;;;;;5.86;92.21;96020.53;5053599;28;20185;-79
2021/10/28 01:28:50;;;;;;;34.33;22.53;;;;;;;5.93;92.72;96016.63;5054661;28;20255;-79
2021/10/28 01:31:19;;;;;;;35.67;23.03;;;;;;;6.06;93.07;96013.19;5053088;28;20185;-79
2021/10/28 01:33:44;;;;;;;37.10;23.97;;;;;;;6.07;93.12;96012.25;5035781;28;20192;-78
2021/10/28 01:36:10;;;;;;;33.17;22.40;;;;;;;5.99;92.88;96011.97;5054290;28;20174;-79
2021/10/28 01:38:39;;;;;;;34.83;22.83;;;;;;;6.00;92.62;96005.88;5036517;28;20202;-78
2021/10/28 01:41:05;;;;;;;32.67;21.37;;;;;;;5.92;92.88;96006.44;5052819;28;20219;-79
2021/10/28 01:43:32;;;;;;;33.70;22.57;;;;;;;5.84;92.32;96009.53;5052485;28;20255;-78
2021/10/28 01:45:58;;;;;;;30.33;21.20;;;;;;;5.88;92.92;96015.28;5052807;28;20181;-78
2021/10/28 01:48:26;;;;;;;31.63;21.80;;;;;;;5.77;92.60;96020.34;5035833;28;20210;-78
2021/10/28 01:50:52;;;;;;;31.43;21.37;;;;;;;5.69;92.99;96015.72;5052434;28;20708;-78
2021/10/28 01:53:17;;;;;;;31.30;19.43;;;;;;;5.65;93.19;96009.13;5051765;28;20201;-78
2021/10/28 01:55:43;;;;;;;34.20;21.73;;;;;;;5.62;93.41;96007.59;5034113;28;20181;-78
2021/10/28 01:58:12;;;;;;;32.73;22.30;;;;;;;5.59;93.09;96001.84;5052350;28;20664;-79
2021/10/28 02:00:38;;;;;;;30.43;20.20;;;;;;;5.64;93.50;96002.34;5052104;28;20186;-78
2021/10/28 02:03:03;;;;;;;32.87;22.47;;;;;;;5.50;93.35;96005.06;5052311;28;20186;-79
2021/10/28 02:05:29;;;;;;;31.67;21.53;;;;;;;5.46;93.31;96001.03;5034698;28;20189;-79
2021/10/28 02:07:55;;;;;;;38.63;23.20;;;;;;;5.46;94.21;96001.03;5052013;28;20206;-81
2021/10/28 02:10:20;;;;;;;38.13;23.83;;;;;;;5.51;94.06;96004.13;5052539;28;20570;-78
2021/10/28 02:12:47;;;;;;;37.17;24.67;;;;;;;5.46;94.15;95995.88;5052295;28;20268;-79
2021/10/28 02:15:14;;;;;;;37.90;23.03;;;;;;;5.39;94.44;95996.31;5035042;28;20525;-79
2021/10/28 02:17:40;;;;;;;38.20;23.73;;;;;;;5.34;94.28;95993.22;5052082;28;20243;-78
2021/10/28 02:20:08;;;;;;;39.73;24.00;;;;;;;5.31;94.51;95993.44;5035048;28;20728;-78
2021/10/28 02:22:34;;;;;;;36.77;24.10;;;;;;;5.24;94.51;95999.94;5053107;28;20230;-78
2021/10/28 02:24:59;;;;;;;39.90;26.03;;;;;;;5.22;94.79;96006.94;5050919;28;20194;-78
2021/10/28 02:27:25;;;;;;;35.90;24.13;;;;;;;5.30;94.70;95993.50;5035243;28;20469;-78
2021/10/28 02:29:50;;;;;;;36.07;22.70;;;;;;;5.40;94.63;95999.72;5035502;28;20202;-78
2021/10/28 02:32:16;;;;;;;33.47;22.20;;;;;;;5.35;94.14;95997.44;5051662;28;20185;-78
2021/10/28 02:34:42;;;;;;;31.53;21.47;;;;;;;5.23;94.09;95995.72;5034571;28;20185;-78
2021/10/28 02:37:07;;;;;;;39.13;22.73;;;;;;;5.15;94.76;95987.69;5035163;28;20209;-78
2021/10/28 02:39:33;;;;;;;36.57;23.67;;;;;;;5.10;95.20;95987.97;5051580;28;20201;-78
2021/10/28 02:41:58;;;;;;;35.67;22.37;;;;;;;5.24;94.94;95986.22;5051593;28;20210;-77
2021/10/28 02:44:24;;;;;;;36.87;23.50;;;;;;;5.30;94.35;95986.66;5050964;28;20182;-79
2021/10/28 02:46:49;;;;;;;36.90;23.93;;;;;;;5.30;94.54;95978.91;5051258;28;20613;-78
2021/10/28 02:49:15;;;;;;;35.70;23.17;;;;;;;5.28;94.60;95985.91;5034866;28;20206;-78
2021/10/28 02:51:41;;;;;;;36.20;23.20;;;;;;;5.23;94.71;95975.09;5052098;28;20219;-78
2021/10/28 02:54:07;;;;;;;36.20;24.10;;;;;;;5.15;95.19;95977.38;5052013;28;20178;-78
2021/10/28 02:56:33;;;;;;;38.50;24.43;;;;;;;5.12;95.17;95972.41;5034767;28;20659;-79
2021/10/28 02:58:58;;;;;;;40.00;24.90;;;;;;;5.04;95.05;95978.09;5052464;28;20202;-78
2021/10/28 03:01:24;;;;;;;39.00;23.47;;;;;;;4.99;95.29;95972.44;5053929;28;20209;-78
2021/10/28 03:03:49;;;;;;;41.17;25.13;;;;;;;4.90;95.43;95967.91;5052595;28;20227;-78
2021/10/28 03:06:15;;;;;;;36.27;23.83;;;;;;;4.95;95.81;95967.63;5035633;28;20184;-78
2021/10/28 03:08:41;;;;;;;40.53;23.10;;;;;;;4.95;95.47;95965.03;5052501;28;20189;-78
2021/10/28 03:11:08;;;;;;;39.27;22.60;;;;;;;4.90;95.45;95967.91;5052195;28;20178;-77
2021/10/28 03:13:34;;;;;;;34.60;21.43;;;;;;;4.98;95.33;95967.41;5035072;28;20182;-78
2021/10/28 03:16:09;;;;;;;41.10;22.67;;;;;;;4.98;94.92;95969.97;5053875;28;20608;-78
2021/10/28 03:26:46;;;;;;;37.13;22.80;;;;;;;4.87;95.19;95962.97;5051553;28;20203;-78
2021/10/28 03:29:12;;;;;;;38.97;23.97;;;;;;;4.91;95.17;95961.81;5051156;28;20202;-78
2021/10/28 03:31:37;;;;;;;39.80;24.50;;;;;;;5.01;95.35;95967.19;5034438;28;20197;-79
2021/10/28 03:34:02;;;;;;;41.23;26.10;;;;;;;4.94;95.70;95959.03;5051427;28;20641;-78
2021/10/28 03:36:52;;;;;;;44.20;28.23;;;;;;;5.01;96.57;95965.44;5052237;28;20257;-78
2021/10/28 04:29:51;;;;;;;32.80;20.80;;;;;;;4.38;94.48;95950.75;5054528;28;20204;-80
2021/10/28 04:32:17;;;;;;;32.03;19.10;;;;;;;4.30;94.31;95941.91;5062256;28;20268;-80
2021/10/28 04:34:44;;;;;;;29.33;19.43;;;;;;;4.20;94.27;95947.63;5069023;28;20264;-80
2021/10/28 04:37:09;;;;;;;32.30;19.90;;;;;;;4.16;94.29;95948.78;5056742;28;20175;-79
2021/10/28 04:39:35;;;;;;;25.93;18.77;;;;;;;4.12;94.11;95951.63;5074313;28;20204;-79
2021/10/28 04:42:00;;;;;;;24.33;16.53;;;;;;;4.07;94.12;95953.69;5055541;28;20189;-79
2021/10/28 04:44:25;;;;;;;26.00;16.10;;;;;;;3.87;93.53;95949.78;5056737;28;20224;-80
2021/10/28 04:46:50;;;;;;;43.10;15.00;;;;;;;3.68;93.21;95947.56;5073955;28;20280;-79
2021/10/28 04:49:16;;;;;;;50.20;14.13;;;;;;;3.58;93.39;95944.72;5073869;28;20203;-79
2021/10/28 04:51:42;;;;;;;39.67;13.33;;;;;;;3.51;92.97;95935.75;5074061;28;20173;-79
2021/10/28 04:54:07;;;;;;;55.03;15.03;;;;;;;3.39;94.18;95939.09;5074520;28;20519;-79
2021/10/28 04:56:33;;;;;;;32.63;13.70;;;;;;;3.35;93.90;95938.44;5075036;28;20207;-79
2021/10/28 04:58:58;;;;;;;36.07;14.67;;;;;;;3.28;93.72;95936.38;5057080;28;20254;-78
2021/10/28 05:01:25;;;;;;;27.60;15.57;;;;;;;3.28;94.76;95926.09;5056996;28;20181;-79
2021/10/28 05:03:51;;;;;;;67.63;18.07;;;;;;;3.17;96.08;95928.47;5073446;28;20238;-79
2021/10/28 05:06:16;;;;;;;45.33;18.93;;;;;;;3.26;96.34;95928.72;5057217;28;20204;-79
2021/10/28 05:08:41;;;;;;;33.33;16.77;;;;;;;3.26;96.61;95931.31;5057150;28;20281;-79
2021/10/28 05:11:07;;;;;;;45.37;18.57;;;;;;;3.23;97.39;95923.81;5057243;28;20651;-79
2021/10/28 05:13:32;;;;;;;41.03;20.20;;;;;;;3.26;97.75;95933.03;5073171;28;20230;-80
2021/10/28 05:15:59;;;;;;;40.63;20.37;;;;;;;3.33;98.30;95935.16;5056712;28;20180;-79
2021/10/28 05:18:25;;;;;;;48.43;21.63;;;;;;;3.38;98.36;95927.19;5061647;28;20200;-79
2021/10/28 05:20:51;;;;;;;49.63;21.53;;;;;;;3.38;98.47;95922.03;5055003;28;20181;-79
2021/10/28 05:23:17;;;;;;;47.83;22.53;;;;;;;3.42;98.88;95923.50;5037212;28;20175;-81
2021/10/28 05:25:42;;;;;;;57.53;23.97;;;;;;;3.41;99.44;95914.16;5037152;28;20193;-79
2021/10/28 05:28:08;;;;;;;56.87;25.20;;;;;;;3.45;99.78;95914.78;5052528;28;20197;-78
2021/10/28 05:30:33;;;;;;;43.87;23.33;;;;;;;3.51;99.50;95915.22;5067122;28;20326;-79
2021/10/28 05:32:59;;;;;;;48.77;24.10;;;;;;;3.48;99.77;95925.69;5073209;28;20177;-79
2021/10/28 05:35:25;;;;;;;42.27;23.63;;;;;;;3.52;99.65;95910.91;5055981;28;20185;-78
2021/10/28 05:37:52;;;;;;;46.23;24.80;;;;;;;3.56;99.61;95915.75;5074733;28;20165;-79
2021/10/28 05:40:17;;;;;;;39.27;24.13;;;;;;;3.59;99.86;95914.75;5054558;28;20563;-79
2021/10/28 05:42:46;;;;;;;51.90;26.53;;;;;;;3.59;100.00;95914.75;5056229;28;20189;-79
2021/10/28 05:45:11;;;;;;;48.57;27.87;;;;;;;3.58;100.00;95911.34;5056377;28;20668;-78
2021/10/28 05:47:37;;;;;;;46.47;26.13;;;;;;;3.65;100.00;95914.38;5056678;28;20209;-78
2021/10/28 05:50:03;;;;;;;48.60;26.20;;;;;;;3.63;100.00;95911.91;5073156;28;20185;-79
2021/10/28 05:52:29;;;;;;;43.37;27.67;;;;;;;3.68;100.00;95914.16;5072813;28;20199;-78
2021/10/28 05:54:54;;;;;;;41.47;25.60;;;;;;;3.68;100.00;95914.16;5055370;28;20583;-78
2021/10/28 05:57:19;;;;;;;42.10;26.97;;;;;;;3.75;100.00;95915.44;5055910;28;20554;-79
2021/10/28 05:59:44;;;;;;;41.97;26.13;;;;;;;3.76;100.00;95909.38;5056048;28;20229;-79
2021/10/28 06:02:10;;;;;;;43.60;27.90;;;;;;;3.80;100.00;95907.41;5056404;28;20192;-79
2021/10/28 06:04:35;;;;;;;40.97;25.77;;;;;;;3.82;100.00;95906.41;5072930;28;20181;-79
2021/10/28 06:07:00;;;;;;;44.60;26.83;;;;;;;3.79;100.00;95914.31;5072863;28;20655;-80
2021/10/28 06:09:26;;;;;;;46.40;26.90;;;;;;;3.79;100.00;95916.88;5055827;28;20251;-79
2021/10/28 06:11:51;;;;;;;50.37;27.70;;;;;;;3.82;100.00;95916.69;5056241;28;20188;-78
2021/10/28 06:14:22;;;;;;;47.93;27.87;;;;;;;3.87;100.00;95919.78;5072718;28;20237;-79
2021/10/28 06:16:53;;;;;;;53.90;28.33;;;;;;;3.89;100.00;95927.41;5057442;28;20180;-79
2021/10/28 06:19:18;;;;;;;50.20;30.30;;;;;;;3.92;100.00;95930.59;5056544;28;20523;-79
2021/10/28 06:21:43;;;;;;;52.87;29.73;;;;;;;4.04;100.00;95923.03;5073214;28;20185;-78
2021/10/28 06:24:09;;;;;;;60.17;31.50;;;;;;;3.94;100.00;95926.19;5071172;28;20212;-78
2021/10/28 06:26:34;;;;;;;49.40;29.13;;;;;;;4.09;100.00;95924.38;5072190;28;20230;-78
2021/10/28 06:28:59;;;;;;;57.63;31.00;;;;;;;4.14;100.00;95927.47;5055198;28;20701;-79
2021/10/28 06:31:25;;;;;;;54.53;30.40;;;;;;;4.18;100.00;95931.50;5071730;28;20216;-78
2021/10/28 06:33:58;;;;;;;60.27;30.67;;;;;;;4.16;100.00;95933.34;5055233;28;20535;-78
2021/10/28 06:36:25;;;;;;;62.10;30.53;;;;;;;4.23;100.00;95929.44;5056946;28;20552;-78
2021/10/28 06:38:51;;;;;;;52.30;28.70;;;;;;;4.24;100.00;95931.09;5071608;28;20201;-78
2021/10/28 06:41:16;;;;;;;48.07;28.30;;;;;;;4.30;100.00;95926.47;5069245;28;20189;-78
2021/10/28 06:43:41;;;;;;;45.10;28.23;;;;;;;4.36;100.00;95937.19;5051717;28;20192;-78
2021/10/28 06:46:07;;;;;;;42.80;27.77;;;;;;;4.34;100.00;95933.09;5059675;28;20256;-78
2021/10/28 06:48:32;;;;;;;45.23;28.43;;;;;;;4.41;100.00;95934.31;5047205;28;20245;-77
2021/10/28 06:50:59;;;;;;;48.77;27.63;;;;;;;4.41;100.00;95934.31;5044055;28;20181;-77
2021/10/28 06:53:26;;;;;;;46.77;28.93;;;;;;;4.39;100.00;95931.84;5061540;28;20288;-77
2021/10/28 06:56:25;;;;;;;54.90;28.17;;;;;;;4.38;100.00;95932.75;5047090;28;20216;-77
2021/10/28 07:04:19;;;;;;;46.00;26.83;;;;;;;4.50;100.00;95931.13;5052828;28;20184;-79
2021/10/28 07:06:44;;;;;;;47.30;27.40;;;;;;;4.57;100.00;95934.94;5055515;28;20195;-79
2021/10/28 07:09:46;;;;;;;41.80;27.87;;;;;;;4.62;100.00;95932.09;5067978;28;20248;-80
2021/10/28 07:12:19;;;;;;;52.20;28.27;;;;;;;4.72;100.00;95938.25;5059967;28;20254;-79
2021/10/28 07:14:49;;;;;;;53.87;28.73;;;;;;;4.71;100.00;95944.34;5058261;28;20176;-81
2021/10/28 07:20:10;;;;;;;39.07;25.20;;;;;;;4.89;99.16;95943.09;5056756;28;20200;-81
2021/10/28 07:28:38;;;;;;;37.83;25.87;;;;;;;4.99;98.81;95941.53;5064332;28;20247;-80
2021/10/28 07:33:46;;;;;;;36.20;23.73;;;;;;;5.04;98.03;95948.97;5060793;28;20177;-79
2021/10/28 07:36:20;;;;;;;38.80;24.37;;;;;;;5.07;98.04;95947.00;5056036;28;20645;-79
2021/10/28 08:14:00;;;;;;;24.80;19.77;;;;;;;5.83;95.47;95937.44;5073761;28;20246;-79
2021/10/28 08:17:01;;;;;;;27.10;19.93;;;;;;;5.87;95.34;95944.84;5055439;28;20184;-79
2021/10/28 08:21:40;;;;;;;27.40;20.37;;;;;;;5.94;95.12;95935.78;5068092;28;20256;-80
2021/10/28 08:29:40;;;;;;;25.40;19.97;;;;;;;6.22;94.49;95926.06;5058085;28;20308;-78
2021/10/28 08:32:06;;;;;;;24.03;18.70;;;;;;;6.31;94.41;95922.00;5055205;28;20265;-79
2021/10/28 08:34:37;;;;;;;25.10;19.20;;;;;;;6.33;94.09;95926.09;5063795;28;20213;-79
2021/10/28 08:37:07;;;;;;;23.90;18.07;;;;;;;6.42;93.64;95919.44;5069460;28;20174;-79
2021/10/28 08:39:34;;;;;;;24.70;18.83;;;;;;;6.51;93.50;95923.91;5051991;28;20248;-79
2021/10/28 08:42:03;;;;;;;25.77;19.57;;;;;;;6.49;94.12;95926.63;5051906;28;20397;-79
2021/10/28 08:44:30;;;;;;;25.77;19.10;;;;;;;6.67;94.05;95918.44;5051806;28;20184;-79
2021/10/28 08:46:55;;;;;;;26.07;19.37;;;;;;;6.72;93.79;95913.78;5050334;28;20277;-80
2021/10/28 08:49:26;;;;;;;27.23;20.03;;;;;;;6.76;93.75;95918.56;5053243;28;20205;-78
2021/10/28 08:52:09;;;;;;;23.17;17.87;;;;;;;6.93;94.04;95932.78;5053888;28;20209;-79
2021/10/28 09:00:19;;;;;;;23.50;18.20;;;;;;;7.11;92.44;95917.66;5068072;28;20205;-79
2021/10/28 09:25:05;;;;;;;19.57;16.13;;;;;;;8.02;89.65;95904.47;5061387;28;20277;-79
2021/10/28 09:31:16;;;;;;;19.73;16.17;;;;;;;8.06;88.90;95905.06;5063740;28;20553;-79
2021/10/28 09:47:42;;;;;;;19.57;14.70;;;;;;;8.41;88.20;95910.00;5056449;28;20209;-78
2021/10/28 09:50:15;;;;;;;18.80;14.80;;;;;;;8.42;88.74;95909.03;5059279;28;20746;-80
2021/10/28 09:52:53;;;;;;;17.90;15.30;;;;;;;8.59;88.46;95911.06;5048897;28;20672;-82
2021/10/28 09:58:31;;;;;;;20.27;15.83;;;;;;;8.71;85.99;95910.03;5057796;28;20223;-78
2021/10/28 10:00:57;;;;;;;20.90;15.90;;;;;;;8.66;86.40;95914.81;5053663;28;20190;-78
2021/10/28 10:03:26;;;;;;;23.03;15.20;;;;;;;8.57;86.43;95923.31;5037514;28;20182;-80
2021/10/28 10:06:03;;;;;;;18.90;15.17;;;;;;;8.68;86.07;95918.06;5037603;28;20186;-79
2021/10/28 10:08:32;;;;;;;20.00;14.60;;;;;;;8.58;86.89;95919.78;5049130;28;20320;-80
2021/10/28 10:10:58;;;;;;;19.63;15.27;;;;;;;8.55;85.69;95917.44;5058312;28;20185;-78
2021/10/28 10:13:28;;;;;;;17.07;14.33;;;;;;;8.48;85.27;95917.13;5045639;28;20187;-77
2021/10/28 10:16:04;;;;;;;16.33;14.00;;;;;;;8.56;84.90;95908.72;5041885;28;20653;-78
2021/10/28 10:18:31;;;;;;;16.97;13.80;;;;;;;8.54;85.55;95905.44;5063310;28;20563;-78
2021/10/28 10:21:02;;;;;;;18.80;14.23;;;;;;;8.58;85.77;95909.44;5066263;28;20706;-78
2021/10/28 10:23:42;;;;;;;16.30;13.53;;;;;;;8.56;86.28;95908.72;5072550;28;20236;-77
2021/10/28 12:15:52;;;;;;;14.37;11.63;;;;;;;11.33;73.13;95831.38;5062497;28;20192;-80
2021/10/28 12:44:15;;;;;;;14.97;12.00;;;;;;;11.55;71.06;95798.13;5056628;28;20247;-79
2021/10/28 13:36:09;;;;;;;10.77;8.90;;;;;;;12.08;69.20;95751.28;5075635;28;20210;-79
2021/10/28 15:02:02;;;;;;;8.37;7.57;;;;;;;11.80;74.32;95714.16;5056890;28;20193;-79
2021/10/28 15:29:14;;;;;;;12.23;9.23;;;;;;;11.04;77.82;95706.78;5054559;28;20221;-79
2021/10/28 15:32:08;;;;;;;11.30;9.00;;;;;;;10.91;78.34;95703.69;5064100;28;20205;-80
2021/10/28 15:37:04;;;;;;;10.63;8.77;;;;;;;10.68;79.70;95702.44;5053996;28;20598;-78
2021/10/28 15:39:35;;;;;;;11.30;8.63;;;;;;;10.60;79.84;95699.75;5062355;28;20197;-79
2021/10/28 15:42:36;;;;;;;10.70;9.47;;;;;;;10.46;80.45;95696.69;5038282;28;20182;-79
2021/10/28 15:53:50;;;;;;;13.80;11.10;;;;;;;9.90;82.48;95702.69;5074568;28;20208;-80
2021/10/28 16:23:25;;;;;;;26.87;17.47;;;;;;;8.64;87.12;95675.91;5069108;28;20188;-80
2021/10/28 16:25:51;;;;;;;24.67;18.67;;;;;;;8.55;87.45;95681.06;5074296;28;20193;-80
2021/10/28 16:28:17;;;;;;;24.10;17.90;;;;;;;8.48;87.61;95683.34;5074156;28;20265;-80
2021/10/28 16:30:44;;;;;;;27.53;22.53;;;;;;;8.42;88.41;95679.53;5069616;28;20679;-79
2021/10/28 16:33:10;;;;;;;28.23;21.70;;;;;;;8.37;88.60;95684.28;5051017;28;20176;-80
2021/10/28 16:35:35;;;;;;;26.13;20.50;;;;;;;8.32;88.89;95683.00;5046595;28;20186;-79
2021/10/28 16:38:03;;;;;;;25.40;19.63;;;;;;;8.29;89.87;95683.25;5054256;28;20235;-80
2021/10/28 16:40:29;;;;;;;21.27;17.73;;;;;;;8.23;89.39;95682.03;5054837;28;20583;-79
2021/10/28 16:42:54;;;;;;;24.90;16.33;;;;;;;8.18;89.76;95677.22;5040274;28;20178;-79
2021/10/28 16:45:19;;;;;;;21.23;15.97;;;;;;;8.17;89.70;95675.59;5039089;28;20205;-80
2021/10/28 16:47:45;;;;;;;21.87;17.17;;;;;;;8.13;89.74;95678.59;5053248;28;20244;-80
2021/10/28 16:50:11;;;;;;;22.03;16.70;;;;;;;8.10;90.16;95679.63;5070694;28;20183;-80
2021/10/28 16:52:37;;;;;;;23.93;19.97;;;;;;;8.07;90.05;95682.50;5060412;28;20176;-80
2021/10/28 16:55:03;;;;;;;23.67;17.67;;;;;;;8.07;90.17;95681.66;5065973;28;20185;-80
2021/10/28 16:57:28;;;;;;;20.33;16.40;;;;;;;7.94;90.71;95677.50;5057752;28;20264;-80
2021/10/28 16:59:53;;;;;;;20.43;15.70;;;;;;;7.87;90.75;95684.16;5074376;28;20247;-81
2021/10/28 17:02:18;;;;;;;24.23;16.93;;;;;;;7.79;91.10;95680.56;5070583;28;20212;-80
2021/10/28 17:04:45;;;;;;;21.57;15.80;;;;;;;7.73;91.06;95686.25;5062281;28;20194;-80
2021/10/28 17:07:10;;;;;;;22.60;17.17;;;;;;;7.68;91.26;95678.84;5037283;28;20205;-80
2021/10/28 17:09:36;;;;;;;26.10;16.90;;;;;;;7.66;91.45;95680.75;5054208;28;20798;-80
2021/10/28 17:12:02;;;;;;;23.27;17.20;;;;;;;7.62;91.60;95682.78;5038203;28;20194;-79
2021/10/28 17:14:27;;;;;;;30.03;20.20;;;;;;;7.61;92.02;95690.66;5063708;28;20200;-80
2021/10/28 17:16:53;;;;;;;27.17;20.57;;;;;;;7.59;91.92;95683.00;5068342;28;20193;-79
2021/10/28 17:19:19;;;;;;;26.63;20.37;;;;;;;7.63;92.04;95681.84;5073887;28;20208;-80
2021/10/28 17:21:45;;;;;;;23.90;18.80;;;;;;;7.64;92.17;95686.06;5066243;28;20182;-80
2021/10/28 17:24:22;;;;;;;27.90;20.23;;;;;;;7.63;92.23;95692.16;5036725;28;20201;-80
2021/10/28 17:26:47;;;;;;;24.93;20.37;;;;;;;7.72;92.36;95687.19;5066549;28;20169;-80
2021/10/28 17:29:13;;;;;;;26.80;20.63;;;;;;;7.79;92.22;95696.09;5074941;28;20193;-79
2021/10/28 17:31:38;;;;;;;36.13;24.37;;;;;;;7.76;91.82;95689.38;5073986;28;20174;-80
2021/10/28 17:34:04;;;;;;;35.03;22.87;;;;;;;7.76;91.78;95686.78;5071342;28;20181;-79
2021/10/28 17:36:30;;;;;;;30.00;20.73;;;;;;;7.78;91.75;95692.69;5061442;28;20185;-79
2021/10/28 17:38:55;;;;;;;23.73;20.47;;;;;;;7.76;91.64;95691.16;5037287;28;20190;-79
2021/10/28 17:41:21;;;;;;;25.43;19.43;;;;;;;7.78;91.69;95686.69;5047240;28;20170;-80
2021/10/28 17:43:51;;;;;;;30.43;20.23;;;;;;;7.83;91.51;95692.28;5061705;28;20205;-80
2021/10/28 17:46:16;;;;;;;24.07;19.77;;;;;;;7.78;91.39;95694.44;5043376;28;20251;-80
2021/10/28 17:48:42;;;;;;;28.13;20.27;;;;;;;7.89;91.14;95692.59;5046836;28;20213;-80
2021/10/28 17:51:08;;;;;;;27.60;21.37;;;;;;;7.87;91.24;95691.09;5061899;28;20207;-80
2021/10/28 17:53:34;;;;;;;26.90;20.77;;;;;;;7.93;91.16;95681.03;5062902;28;20177;-80
2021/10/28 17:55:59;;;;;;;27.53;20.67;;;;;;;7.91;90.89;95687.31;5060358;28;20194;-80
2021/10/28 17:58:25;;;;;;;30.47;23.47;;;;;;;7.91;91.00;95689.88;5058832;28;20220;-79
2021/10/28 18:00:51;;;;;;;29.03;21.63;;;;;;;7.93;91.05;95688.00;5063933;28;20177;-80
2021/10/28 18:03:20;;;;;;;26.20;20.97;;;;;;;7.88;90.77;95680.63;5042229;28;20923;-80
2021/10/28 18:05:46;;;;;;;25.10;19.43;;;;;;;7.88;91.05;95675.47;5056361;28;20280;-79
2021/10/28 18:08:13;;;;;;;25.40;19.03;;;;;;;7.87;91.06;95686.75;5055855;28;20371;-79
2021/10/28 18:10:39;;;;;;;26.60;18.80;;;;;;;7.86;90.88;95686.84;5059532;28;20182;-80
2021/10/28 18:13:04;;;;;;;27.47;19.87;;;;;;;7.80;91.29;95675.28;5049365;28;20186;-80
2021/10/28 18:15:30;;;;;;;26.13;19.00;;;;;;;7.80;91.67;95677.84;5033018;28;20181;-79
2021/10/28 18:17:57;;;;;;;27.17;19.70;;;;;;;7.84;91.42;95668.06;5056906;28;20238;-80
2021/10/28 18:20:23;;;;;;;23.77;18.10;;;;;;;7.85;91.44;95662.75;5052437;28;20192;-79
2021/10/28 18:22:49;;;;;;;23.67;18.27;;;;;;;7.82;91.53;95662.22;5070889;28;20248;-79
2021/10/28 18:25:15;;;;;;;24.57;18.83;;;;;;;7.77;91.73;95661.75;5069952;28;20189;-80
2021/10/28 18:27:41;;;;;;;21.93;17.80;;;;;;;7.75;91.78;95654.13;5052543;28;20278;-79
2021/10/28 18:30:16;;;;;;;24.20;18.63;;;;;;;7.73;91.81;95650.06;5059771;28;20712;-79
2021/10/28 18:32:43;;;;;;;23.23;17.73;;;;;;;7.69;92.30;95652.09;5051808;28;20174;-80
2021/10/28 18:35:11;;;;;;;20.93;16.57;;;;;;;7.70;92.40;95653.72;5050590;28;20268;-80
2021/10/28 18:37:36;;;;;;;22.83;16.90;;;;;;;7.73;92.17;95650.88;5037622;28;20182;-80
2021/10/28 18:40:02;;;;;;;21.10;16.20;;;;;;;7.67;92.47;95651.38;5068911;28;20594;-80
2021/10/28 18:42:27;;;;;;;23.10;16.67;;;;;;;7.67;92.60;95653.94;5066056;28;20230;-80
2021/10/28 18:44:52;;;;;;;20.97;16.07;;;;;;;7.75;92.29;95661.91;5051672;28;20247;-80
2021/10/28 18:47:20;;;;;;;22.97;18.03;;;;;;;7.85;92.39;95649.84;5062881;28;20204;-80
2021/10/28 18:49:45;;;;;;;27.13;19.83;;;;;;;7.93;91.93;95656.94;5045280;28;20201;-80
2021/10/28 18:52:10;;;;;;;23.67;17.97;;;;;;;7.95;91.68;95649.88;5060875;28;20182;-80
2021/10/28 18:54:37;;;;;;;22.70;17.23;;;;;;;7.95;91.93;95642.97;5054851;28;20193;-80
2021/10/28 18:57:02;;;;;;;18.40;15.37;;;;;;;7.98;91.80;95646.25;5052203;28;20173;-79
2021/10/28 18:59:28;;;;;;;20.43;16.20;;;;;;;7.92;91.93;95645.78;5053237;28;20270;-80
2021/10/28 19:01:55;;;;;;;20.87;15.97;;;;;;;7.87;92.07;95636.81;5064012;28;20272;-80
2021/10/28 19:04:21;;;;;;;18.17;14.53;;;;;;;7.86;92.08;95642.91;5070871;28;20204;-80
2021/10/28 19:06:46;;;;;;;19.33;15.20;;;;;;;7.84;91.97;95637.84;5074246;28;20549;-79
2021/10/28 19:09:13;;;;;;;18.23;14.73;;;;;;;7.75;91.89;95630.88;5073059;28;20196;-79
2021/10/28 19:11:38;;;;;;;16.70;13.73;;;;;;;7.80;91.73;95633.91;5047948;28;20221;-79
2021/10/28 19:14:03;;;;;;;18.70;13.53;;;;;;;7.74;92.02;95628.41;5059230;28;20221;-80
2021/10/28 19:16:29;;;;;;;18.67;15.17;;;;;;;7.69;92.18;95621.06;5053417;28;20184;-79
2021/10/28 19:18:54;;;;;;;16.57;13.97;;;;;;;7.76;91.96;95616.19;5051217;28;20205;-79
2021/10/28 19:21:20;;;;;;;19.10;14.37;;;;;;;7.69;92.11;95612.50;5037207;28;20185;-79
2021/10/28 19:23:45;;;;;;;16.77;14.47;;;;;;;7.64;92.19;95616.25;5061865;28;20181;-80
2021/10/28 19:26:12;;;;;;;21.23;16.60;;;;;;;7.60;92.64;95611.50;5054951;28;20220;-79
2021/10/28 19:28:40;;;;;;;19.30;14.87;;;;;;;7.73;92.43;95608.69;5070528;28;20217;-80
2021/10/28 19:31:13;;;;;;;21.33;14.97;;;;;;;7.80;92.18;95604.66;5059826;28;20239;-80
2021/10/28 19:33:51;;;;;;;16.70;13.60;;;;;;;7.89;91.84;95609.88;5036845;28;20244;-80
2021/10/28 19:36:26;;;;;;;19.97;14.37;;;;;;;7.89;91.90;95609.03;5050343;28;20898;-80
2021/10/28 19:39:22;;;;;;;20.77;15.17;;;;;;;8.03;91.04;95608.69;5049032;28;20204;-80
2021/10/28 19:47:07;;;;;;;18.63;13.73;;;;;;;8.11;90.90;95598.50;5049628;28;20208;-79
2021/10/28 19:49:33;;;;;;;18.40;13.40;;;;;;;8.13;90.71;95595.81;5034010;28;20634;-80
2021/10/28 19:52:02;;;;;;;17.93;14.93;;;;;;;8.11;90.77;95595.91;5050497;28;20217;-80
2021/10/28 19:54:27;;;;;;;17.07;13.07;;;;;;;8.18;90.33;95599.63;5058913;28;20189;-80
2021/10/28 19:56:54;;;;;;;16.43;11.87;;;;;;;8.12;90.26;95597.53;5065306;28;20211;-80
2021/10/28 19:59:19;;;;;;;16.33;12.60;;;;;;;8.13;90.56;95596.63;5054277;28;20204;-80